Terminal Aerodrome Forecast
Issued by NWS Wilmington, OH

Current Version | Previous Version | Graphics & Text | Print | Product List | Glossary On
Versions: 1 2 3 4 5 6 7 8 9 10 11 12 13 14 15 16 17 18 19
000
FTUS41 KILN 162320
TAFCMH
TAF
KCMH 162320Z 1700/1724 29010KT P6SM OVC025
     FM170300 VRB03KT P6SM BKN020
     FM171200 15007KT P6SM SCT015 BKN200
     FM171900 15009KT P6SM BKN150=

USA.gov is the U.S. government's official web portal to all federal, state and local government web resources and services.